createdAt,value
2022-10-18T00:01:11.297Z,13.90
2022-10-18T00:06:16.264Z,10.30
2022-10-18T00:08:44.654Z,14.10
2022-10-18T00:11:13.237Z,12.10
2022-10-18T00:13:41.574Z,15.10
2022-10-18T00:16:14.065Z,12.30
2022-10-18T00:18:43.492Z,15.70
2022-10-18T00:21:19.701Z,11.40
2022-10-18T00:23:49.494Z,12.60
2022-10-18T00:26:27.911Z,13.60
2022-10-18T00:29:03.631Z,12.50
2022-10-18T00:31:36.178Z,12.00
2022-10-18T00:34:10.498Z,11.30
2022-10-18T00:36:38.953Z,10.70
2022-10-18T00:39:09.116Z,9.70
2022-10-18T00:41:38.389Z,11.90
2022-10-18T00:44:12.577Z,8.90
2022-10-18T00:46:49.081Z,9.50
2022-10-18T00:49:30.867Z,9.10
2022-10-18T00:52:11.565Z,11.80
2022-10-18T00:54:43.141Z,12.50
2022-10-18T00:57:13.055Z,13.20
2022-10-18T00:59:43.277Z,12.50
2022-10-18T01:02:11.911Z,13.40
2022-10-18T01:04:40.384Z,12.70
2022-10-18T01:07:26.911Z,12.50
2022-10-18T01:10:30.716Z,12.40
2022-10-18T01:13:25.848Z,12.10
2022-10-18T01:16:48.475Z,13.90
2022-10-18T01:19:36.700Z,13.70
2022-10-18T01:22:28.197Z,14.30
2022-10-18T01:25:17.716Z,13.10
2022-10-18T01:28:23.241Z,12.50
2022-10-18T01:30:57.094Z,15.50
2022-10-18T01:33:39.893Z,12.50
2022-10-18T01:36:23.918Z,12.30
2022-10-18T01:38:57.544Z,11.50
2022-10-18T01:41:27.944Z,12.30
2022-10-18T01:44:03.514Z,13.90
2022-10-18T01:46:33.560Z,13.20
2022-10-18T01:49:01.802Z,16.40
2022-10-18T01:51:33.025Z,12.70
2022-10-18T01:54:01.532Z,13.60
2022-10-18T01:56:36.873Z,12.10
2022-10-18T01:59:26.938Z,15.90
2022-10-18T02:02:38.749Z,10.80
2022-10-18T02:05:12.948Z,12.90
2022-10-18T02:08:23.309Z,10.90
2022-10-18T02:11:04.898Z,11.70
2022-10-18T02:13:40.145Z,13.00
2022-10-18T02:16:15.753Z,12.00
2022-10-18T02:18:58.596Z,11.90
2022-10-18T02:21:28.981Z,13.10
2022-10-18T02:23:59.417Z,12.70
2022-10-18T02:26:28.193Z,11.00
2022-10-18T02:28:56.938Z,14.60
2022-10-18T02:31:40.169Z,13.10
2022-10-18T02:34:22.987Z,13.30
2022-10-18T02:36:58.405Z,15.90
2022-10-18T02:39:36.825Z,11.60
2022-10-18T02:42:09.203Z,12.70
2022-10-18T02:44:39.116Z,11.30
2022-10-18T02:47:12.308Z,12.50
2022-10-18T02:49:40.705Z,12.20
2022-10-18T02:52:09.489Z,10.60
2022-10-18T02:54:37.793Z,10.40
2022-10-18T02:57:06.144Z,10.20
2022-10-18T02:59:34.422Z,12.00
2022-10-18T03:02:02.690Z,10.80
2022-10-18T03:04:31.015Z,16.30
2022-10-18T03:06:59.337Z,12.10
2022-10-18T03:09:27.712Z,12.90
2022-10-18T03:11:56.078Z,12.60
2022-10-18T03:14:24.375Z,15.30
2022-10-18T03:16:52.737Z,15.70
2022-10-18T03:19:21.139Z,15.20
2022-10-18T03:21:49.497Z,11.50
2022-10-18T03:24:18.094Z,14.20
2022-10-18T03:26:46.644Z,14.70
2022-10-18T03:29:14.952Z,14.90
2022-10-18T03:31:43.259Z,13.70
2022-10-18T03:34:11.717Z,16.20
2022-10-18T03:36:41.526Z,15.20
2022-10-18T03:39:12.874Z,15.70
2022-10-18T03:41:41.150Z,14.70
2022-10-18T03:44:09.437Z,15.80
2022-10-18T03:46:37.689Z,16.50
2022-10-18T03:49:05.960Z,15.40
2022-10-18T03:51:34.299Z,14.50
2022-10-18T03:54:02.912Z,16.10
2022-10-18T03:56:31.317Z,15.40
2022-10-18T03:58:59.604Z,15.70
2022-10-18T04:01:28.000Z,14.50
2022-10-18T04:03:56.367Z,15.60
2022-10-18T04:06:24.668Z,14.10
2022-10-18T04:08:52.930Z,17.10
2022-10-18T04:11:21.242Z,14.50
2022-10-18T04:13:50.534Z,15.10
2022-10-18T04:16:18.825Z,14.50
2022-10-18T04:18:47.051Z,14.30
2022-10-18T04:21:15.323Z,15.30
2022-10-18T04:23:43.681Z,13.00
2022-10-18T04:26:12.023Z,14.70
2022-10-18T04:28:40.454Z,18.20
2022-10-18T04:31:11.293Z,16.50
2022-10-18T04:33:39.556Z,15.60
2022-10-18T04:36:08.040Z,15.00
2022-10-18T04:38:36.370Z,13.90
2022-10-18T04:41:04.786Z,15.20
2022-10-18T04:43:33.110Z,13.00
2022-10-18T04:46:01.480Z,15.70
2022-10-18T04:48:29.975Z,16.00
2022-10-18T04:50:58.268Z,14.50
2022-10-18T04:53:27.069Z,13.50
2022-10-18T04:55:57.364Z,13.30
2022-10-18T04:58:26.868Z,14.90
2022-10-18T05:00:55.480Z,18.80
2022-10-18T05:03:24.438Z,15.40
2022-10-18T05:06:08.281Z,15.20
2022-10-18T05:08:38.812Z,15.70
2022-10-18T05:11:07.715Z,12.20
2022-10-18T05:13:38.454Z,14.50
2022-10-18T05:16:07.493Z,15.40
2022-10-18T05:18:36.068Z,15.40
2022-10-18T05:21:05.131Z,14.10
2022-10-18T05:23:33.870Z,15.50
2022-10-18T05:26:06.776Z,13.60
2022-10-18T05:28:40.441Z,18.70
2022-10-18T05:31:11.974Z,17.80
2022-10-18T05:33:40.451Z,17.70
2022-10-18T05:36:09.479Z,13.30
2022-10-18T05:38:48.666Z,14.00
2022-10-18T05:41:16.982Z,14.20
2022-10-18T05:43:45.421Z,12.90
2022-10-18T05:46:15.664Z,14.00
2022-10-18T05:48:49.394Z,15.30
2022-10-18T05:51:20.569Z,12.60
2022-10-18T05:53:48.857Z,14.10
2022-10-18T05:56:17.473Z,13.40
2022-10-18T05:58:50.913Z,17.80
2022-10-18T06:01:19.683Z,13.20
2022-10-18T06:03:48.374Z,12.80
2022-10-18T06:06:17.060Z,16.50
2022-10-18T06:08:45.405Z,16.20
2022-10-18T06:11:17.292Z,14.90
2022-10-18T06:13:48.506Z,12.60
2022-10-18T06:16:20.731Z,12.50
2022-10-18T06:18:53.044Z,13.30
2022-10-18T06:21:22.667Z,11.40
2022-10-18T06:26:20.732Z,15.70
2022-10-18T06:28:49.505Z,13.60
2022-10-18T06:31:18.649Z,13.70
2022-10-18T06:33:47.540Z,15.60
2022-10-18T06:36:19.301Z,12.30
2022-10-18T06:38:56.224Z,18.70
2022-10-18T06:41:24.611Z,12.70
2022-10-18T06:43:57.699Z,14.90
2022-10-18T06:46:28.439Z,15.50
2022-10-18T06:48:58.289Z,15.40
2022-10-18T06:51:26.731Z,15.30
2022-10-18T06:54:13.014Z,15.70
2022-10-18T06:56:43.833Z,15.20
2022-10-18T06:59:12.630Z,14.60
2022-10-18T07:01:42.034Z,18.60
2022-10-18T07:04:11.106Z,8.90
2022-10-18T07:06:40.067Z,9.00
2022-10-18T07:09:09.317Z,12.10
2022-10-18T07:11:37.772Z,13.70
2022-10-18T07:14:06.962Z,13.10
2022-10-18T07:19:04.759Z,9.70
2022-10-18T07:21:33.178Z,12.70
2022-10-18T07:24:01.603Z,15.60
2022-10-18T07:26:33.404Z,12.60
2022-10-18T07:29:13.662Z,12.50
2022-10-18T07:31:42.576Z,13.30
2022-10-18T07:34:13.622Z,14.90
2022-10-18T07:36:42.589Z,16.30
2022-10-18T07:39:11.307Z,19.70
2022-10-18T07:41:40.468Z,16.50
2022-10-18T07:44:09.822Z,12.80
2022-10-18T07:46:38.465Z,14.00
2022-10-18T07:49:08.163Z,14.10
2022-10-18T07:51:36.790Z,13.30
2022-10-18T07:54:05.129Z,14.50
2022-10-18T07:56:33.520Z,14.30
2022-10-18T07:59:02.157Z,17.00
2022-10-18T08:01:30.652Z,11.70
2022-10-18T08:04:06.914Z,15.70
2022-10-18T08:06:35.961Z,10.10
2022-10-18T08:09:04.504Z,13.90
2022-10-18T08:11:32.874Z,10.70
2022-10-18T08:14:02.058Z,11.70
2022-10-18T08:19:01.006Z,7.20
2022-10-18T08:21:29.307Z,11.30
2022-10-18T08:23:57.609Z,8.10
2022-10-18T08:26:25.920Z,9.70
2022-10-18T08:29:09.817Z,9.00
2022-10-18T08:31:42.834Z,8.40
2022-10-18T08:34:12.962Z,9.20
2022-10-18T08:36:47.060Z,9.20
2022-10-18T08:39:15.469Z,6.90
2022-10-18T08:41:58.990Z,7.70
2022-10-18T08:44:31.975Z,8.80
2022-10-18T08:47:15.187Z,9.50
2022-10-18T08:49:58.447Z,8.60
2022-10-18T08:52:53.474Z,9.40
2022-10-18T08:55:25.066Z,8.00
2022-10-18T08:57:54.790Z,8.50
2022-10-18T09:00:29.942Z,9.10
2022-10-18T09:03:22.773Z,8.40
2022-10-18T09:06:35.871Z,7.20
2022-10-18T09:09:09.717Z,5.30
2022-10-18T09:12:17.724Z,9.20
2022-10-18T09:15:14.214Z,7.50
2022-10-18T09:18:13.486Z,9.10
2022-10-18T09:20:53.929Z,7.20
2022-10-18T09:23:47.223Z,8.60
2022-10-18T09:26:23.670Z,5.70
2022-10-18T09:29:27.873Z,6.90
2022-10-18T09:32:17.257Z,8.50
2022-10-18T09:35:06.235Z,6.80
2022-10-18T09:37:35.198Z,9.50
2022-10-18T09:40:27.602Z,8.70
2022-10-18T09:43:19.054Z,8.20
2022-10-18T09:45:48.760Z,8.40
2022-10-18T09:48:31.397Z,8.70
2022-10-18T09:51:12.327Z,7.80
2022-10-18T09:54:00.323Z,7.00
2022-10-18T09:56:57.647Z,7.60
2022-10-18T09:59:35.016Z,7.70
2022-10-18T10:02:04.542Z,7.90
2022-10-18T10:04:33.413Z,7.20
2022-10-18T10:07:02.820Z,8.10
2022-10-18T10:09:41.137Z,8.10
2022-10-18T10:12:33.477Z,9.10
2022-10-18T10:15:29.696Z,7.20
2022-10-18T10:18:18.699Z,7.40
2022-10-18T10:21:00.440Z,6.40
2022-10-18T10:23:37.447Z,9.10
2022-10-18T10:26:25.481Z,5.90
2022-10-18T10:28:54.397Z,8.00
2022-10-18T10:31:25.662Z,6.90
2022-10-18T10:34:05.096Z,8.60
2022-10-18T10:36:35.279Z,8.70
2022-10-18T10:39:18.901Z,4.90
2022-10-18T10:41:56.890Z,6.30
2022-10-18T10:44:31.882Z,8.60
2022-10-18T10:47:00.528Z,7.30
2022-10-18T10:49:48.983Z,7.30
2022-10-18T10:52:28.618Z,5.90
2022-10-18T10:55:06.205Z,7.70
2022-10-18T10:57:51.040Z,7.50
2022-10-18T11:00:37.744Z,6.60
2022-10-18T11:03:34.329Z,6.60
2022-10-18T11:06:02.777Z,5.60
2022-10-18T11:08:40.477Z,7.20
2022-10-18T11:11:28.717Z,7.70
2022-10-18T11:14:27.975Z,6.40
2022-10-18T11:17:12.399Z,8.00
2022-10-18T11:20:24.973Z,6.90
2022-10-18T11:23:03.821Z,5.40
2022-10-18T11:25:58.097Z,5.10
2022-10-18T11:29:27.744Z,6.70
2022-10-18T11:31:55.989Z,5.30
2022-10-18T11:34:58.288Z,7.90
2022-10-18T11:38:14.550Z,6.60
2022-10-18T11:41:02.419Z,6.80
2022-10-18T11:44:01.652Z,7.70
2022-10-18T11:47:08.765Z,4.70
2022-10-18T11:50:02.305Z,5.50
2022-10-18T11:52:45.137Z,5.80
2022-10-18T11:55:53.569Z,4.30
2022-10-18T11:58:53.793Z,6.80
2022-10-18T12:01:28.809Z,5.10
2022-10-18T12:04:08.179Z,5.50
2022-10-18T12:06:43.596Z,6.50
2022-10-18T12:09:28.888Z,5.30
2022-10-18T12:12:42.058Z,4.50
2022-10-18T12:15:22.490Z,5.80
2022-10-18T12:17:55.767Z,5.80
2022-10-18T12:20:41.420Z,7.50
2022-10-18T12:23:51.760Z,7.70
2022-10-18T12:26:21.842Z,6.20
2022-10-18T12:29:03.748Z,4.60
2022-10-18T12:31:48.270Z,8.70
2022-10-18T12:34:27.147Z,6.10
2022-10-18T12:37:19.832Z,6.80
2022-10-18T12:40:10.231Z,7.30
2022-10-18T12:42:47.148Z,6.30
2022-10-18T12:45:32.406Z,8.10
2022-10-18T12:48:05.974Z,8.10
2022-10-18T12:50:43.789Z,7.40
2022-10-18T12:53:24.499Z,7.90
2022-10-18T12:55:53.984Z,8.70
2022-10-18T12:58:27.237Z,7.80
2022-10-18T13:01:02.466Z,7.40
2022-10-18T13:03:57.195Z,6.70
2022-10-18T13:06:25.941Z,6.90
2022-10-18T13:09:21.677Z,5.70
2022-10-18T13:11:51.481Z,6.20
2022-10-18T13:14:44.152Z,6.10
2022-10-18T13:17:34.097Z,7.20
2022-10-18T13:20:40.901Z,4.70
2022-10-18T13:23:37.053Z,6.30
2022-10-18T13:26:54.066Z,6.20
2022-10-18T13:29:59.342Z,6.20
2022-10-18T13:32:38.374Z,9.50
2022-10-18T13:35:38.495Z,9.40
2022-10-18T13:38:50.586Z,7.00
2022-10-18T13:44:37.425Z,9.90
2022-10-18T13:47:05.633Z,6.10
2022-10-18T13:49:40.032Z,7.20
2022-10-18T13:52:48.430Z,7.20
2022-10-18T13:55:19.613Z,6.50
2022-10-18T13:58:19.417Z,6.50
2022-10-18T14:01:15.478Z,8.10
2022-10-18T14:04:00.424Z,6.10
2022-10-18T14:06:37.385Z,6.80
2022-10-18T14:09:26.180Z,7.40
2022-10-18T14:12:27.776Z,8.30
2022-10-18T14:15:17.229Z,6.70
2022-10-18T14:17:51.879Z,7.10
2022-10-18T14:20:55.151Z,9.60
2022-10-18T14:23:34.875Z,9.80
2022-10-18T14:26:18.498Z,8.50
2022-10-18T14:29:03.323Z,6.90
2022-10-18T14:31:32.169Z,6.60
2022-10-18T14:34:01.368Z,7.80
2022-10-18T14:36:39.741Z,6.40
2022-10-18T14:39:20.092Z,8.90
2022-10-18T14:41:54.486Z,7.30
2022-10-18T14:44:29.298Z,6.50
2022-10-18T14:47:15.448Z,9.80
2022-10-18T14:49:46.046Z,7.10
2022-10-18T14:52:26.628Z,7.00
2022-10-18T14:54:57.000Z,7.70
2022-10-18T14:57:36.629Z,8.00
2022-10-18T15:00:09.167Z,9.40
2022-10-18T15:02:39.023Z,8.00
2022-10-18T15:05:27.975Z,8.10
2022-10-18T15:08:00.221Z,9.40
2022-10-18T15:10:34.770Z,7.80
2022-10-18T15:13:10.877Z,8.80
2022-10-18T15:15:41.021Z,7.80
2022-10-18T15:21:24.577Z,8.70
2022-10-18T15:23:55.242Z,8.40
2022-10-18T15:26:30.284Z,8.30
2022-10-18T15:29:01.670Z,11.20
2022-10-18T15:31:37.736Z,10.20
2022-10-18T15:34:27.925Z,11.20
2022-10-18T15:36:57.417Z,7.20
2022-10-18T15:42:03.320Z,8.10
2022-10-18T15:44:51.653Z,7.50
2022-10-18T15:47:25.158Z,7.40
2022-10-18T15:49:56.364Z,6.20
2022-10-18T15:52:39.318Z,6.00
2022-10-18T15:55:29.527Z,9.50
2022-10-18T15:58:12.700Z,7.20
2022-10-18T16:00:43.366Z,7.60
2022-10-18T16:03:12.102Z,7.10
2022-10-18T16:05:41.153Z,8.40
2022-10-18T16:08:44.811Z,11.20
2022-10-18T16:11:17.277Z,9.00
2022-10-18T16:13:46.002Z,9.60
2022-10-18T16:16:23.707Z,8.60
2022-10-18T16:18:53.234Z,7.60
2022-10-18T16:21:30.453Z,7.80
2022-10-18T16:23:59.204Z,6.90
2022-10-18T16:26:29.069Z,7.80
2022-10-18T16:28:58.961Z,6.30
2022-10-18T16:31:31.297Z,9.40
2022-10-18T16:34:01.066Z,7.80
2022-10-18T16:36:32.757Z,8.80
2022-10-18T16:39:07.949Z,8.70
2022-10-18T16:41:36.225Z,7.80
2022-10-18T16:44:04.653Z,8.80
2022-10-18T16:46:34.945Z,7.70
2022-10-18T16:49:05.169Z,9.40
2022-10-18T16:51:33.665Z,11.30
2022-10-18T16:54:01.971Z,8.70
2022-10-18T16:56:33.422Z,8.90
2022-10-18T16:59:02.598Z,7.30
2022-10-18T17:01:30.926Z,9.50
2022-10-18T17:03:59.254Z,9.40
2022-10-18T17:06:30.718Z,8.20
2022-10-18T17:09:00.541Z,10.10
2022-10-18T17:11:29.816Z,10.40
2022-10-18T17:13:58.356Z,8.50
2022-10-18T17:16:33.647Z,8.60
2022-10-18T17:19:06.415Z,13.00
2022-10-18T17:21:35.368Z,9.30
2022-10-18T17:24:06.468Z,8.20
2022-10-18T17:26:35.138Z,8.70
2022-10-18T17:29:07.292Z,8.30
2022-10-18T17:31:36.232Z,8.80
2022-10-18T17:34:05.188Z,12.40
2022-10-18T17:36:34.178Z,9.00
2022-10-18T17:39:03.404Z,7.50
2022-10-18T17:41:32.183Z,8.40
2022-10-18T17:44:04.451Z,10.00
2022-10-18T17:46:33.067Z,9.10
2022-10-18T17:49:01.575Z,8.50
2022-10-18T17:51:30.160Z,8.00
2022-10-18T17:53:58.615Z,10.00
2022-10-18T17:56:31.291Z,7.60
2022-10-18T17:59:00.462Z,11.20
2022-10-18T18:01:28.991Z,7.80
2022-10-18T18:03:59.978Z,7.00
2022-10-18T18:06:31.700Z,7.10
2022-10-18T18:09:05.218Z,9.40
2022-10-18T18:11:35.343Z,7.20
2022-10-18T18:14:09.419Z,7.70
2022-10-18T18:16:41.037Z,7.80
2022-10-18T18:19:10.363Z,8.60
2022-10-18T18:24:08.397Z,10.50
2022-10-18T18:26:38.031Z,7.50
2022-10-18T18:29:07.000Z,8.80
2022-10-18T18:31:40.040Z,11.00
2022-10-18T18:34:11.098Z,8.50
2022-10-18T18:36:39.861Z,8.00
2022-10-18T18:39:09.279Z,11.20
2022-10-18T18:44:06.991Z,7.50
2022-10-18T18:46:38.865Z,9.70
2022-10-18T18:49:08.289Z,7.60
2022-10-18T18:51:40.342Z,8.60
2022-10-18T18:54:10.518Z,7.50
2022-10-18T18:56:38.868Z,9.60
2022-10-18T18:59:07.847Z,7.30
2022-10-18T19:01:38.005Z,9.70
2022-10-18T19:04:09.100Z,7.20
2022-10-18T19:06:43.797Z,8.00
2022-10-18T19:09:20.564Z,8.80
2022-10-18T19:11:54.096Z,8.10
2022-10-18T19:14:25.215Z,9.00
2022-10-18T19:16:58.923Z,9.90
2022-10-18T19:19:31.397Z,13.90
2022-10-18T19:22:03.947Z,16.10
2022-10-18T19:24:32.523Z,8.20
2022-10-18T19:27:11.957Z,7.80
2022-10-18T19:32:15.150Z,6.90
2022-10-18T19:34:46.180Z,7.70
2022-10-18T19:37:15.887Z,10.20
2022-10-18T19:39:44.149Z,9.60
2022-10-18T19:42:18.585Z,8.40
2022-10-18T19:44:50.777Z,6.50
2022-10-18T19:47:20.651Z,8.40
2022-10-18T19:49:48.907Z,10.50
2022-10-18T19:52:17.142Z,7.40
2022-10-18T19:54:45.532Z,7.50
2022-10-18T19:57:13.910Z,9.50
2022-10-18T19:59:42.263Z,7.10
2022-10-18T20:02:15.305Z,9.30
2022-10-18T20:04:43.581Z,7.80
2022-10-18T20:07:11.877Z,10.00
2022-10-18T20:09:40.013Z,8.60
2022-10-18T20:12:08.233Z,7.80
2022-10-18T20:14:36.502Z,9.40
2022-10-18T20:17:05.996Z,9.00
2022-10-18T20:22:02.416Z,8.30
2022-10-18T20:24:30.891Z,7.20
2022-10-18T20:26:59.178Z,8.20
2022-10-18T20:29:27.407Z,11.10
2022-10-18T20:31:55.887Z,8.30
2022-10-18T20:34:26.227Z,7.60
2022-10-18T20:36:56.102Z,9.10
2022-10-18T20:39:24.647Z,7.90
2022-10-18T20:41:52.901Z,7.40
2022-10-18T20:44:22.759Z,8.70
2022-10-18T20:46:51.217Z,10.60
2022-10-18T20:49:22.434Z,8.10
2022-10-18T20:51:50.707Z,7.40
2022-10-18T20:54:19.074Z,9.20
2022-10-18T20:56:47.498Z,9.10
2022-10-18T20:59:15.765Z,9.30
2022-10-18T21:01:44.084Z,9.00
2022-10-18T21:04:12.534Z,9.90
2022-10-18T21:06:43.964Z,9.00
2022-10-18T21:09:16.112Z,8.20
2022-10-18T21:11:48.447Z,7.70
2022-10-18T21:14:20.162Z,8.10
2022-10-18T21:16:50.781Z,7.30
2022-10-18T21:19:27.257Z,6.60
2022-10-18T21:21:57.700Z,7.80
2022-10-18T21:24:26.986Z,9.50
2022-10-18T21:26:55.305Z,10.00
2022-10-18T21:29:25.056Z,6.10
2022-10-18T21:34:24.083Z,8.50
2022-10-18T21:36:52.497Z,7.30
2022-10-18T21:41:52.813Z,10.40
2022-10-18T21:44:21.282Z,7.80
2022-10-18T21:46:50.993Z,7.80
2022-10-18T21:49:19.513Z,9.00
2022-10-18T21:51:48.061Z,6.30
2022-10-18T21:54:17.077Z,7.30
2022-10-18T21:56:45.928Z,8.10
2022-10-18T21:59:14.485Z,7.30
2022-10-18T22:01:44.428Z,6.50
2022-10-18T22:04:24.926Z,6.20
2022-10-18T22:06:53.329Z,8.90
2022-10-18T22:09:22.277Z,8.80
2022-10-18T22:11:53.647Z,9.10
2022-10-18T22:14:22.759Z,9.00
2022-10-18T22:16:51.292Z,8.80
2022-10-18T22:19:20.463Z,5.80
2022-10-18T22:21:49.183Z,8.50
2022-10-18T22:24:18.093Z,8.00
2022-10-18T22:26:47.174Z,6.40
2022-10-18T22:29:19.556Z,8.00
2022-10-18T22:31:53.260Z,7.30
2022-10-18T22:34:26.360Z,7.20
2022-10-18T22:36:55.625Z,8.10
2022-10-18T22:39:24.836Z,7.50
2022-10-18T22:41:56.584Z,9.20
2022-10-18T22:44:25.485Z,5.90
2022-10-18T22:46:53.821Z,12.90
2022-10-18T22:49:22.119Z,8.90
2022-10-18T22:51:50.421Z,6.80
2022-10-18T22:54:18.837Z,8.50
2022-10-18T22:56:47.173Z,6.20
2022-10-18T22:59:15.424Z,8.70
2022-10-18T23:01:43.750Z,9.30
2022-10-18T23:04:12.389Z,7.90
2022-10-18T23:06:41.096Z,7.80
2022-10-18T23:09:11.557Z,8.40
2022-10-18T23:11:39.903Z,8.30
2022-10-18T23:14:08.366Z,9.40
2022-10-18T23:16:36.780Z,8.60
2022-10-18T23:19:05.445Z,9.20
2022-10-18T23:21:34.570Z,9.10
2022-10-18T23:24:03.585Z,8.10
2022-10-18T23:29:01.401Z,6.40
2022-10-18T23:31:33.315Z,7.60
2022-10-18T23:34:05.018Z,8.50
2022-10-18T23:36:34.397Z,8.00
2022-10-18T23:39:04.010Z,10.40
2022-10-18T23:44:00.901Z,10.40
2022-10-18T23:46:29.163Z,8.80
2022-10-18T23:48:57.519Z,8.30
2022-10-18T23:51:25.898Z,7.50
2022-10-18T23:53:54.542Z,7.10
2022-10-18T23:56:24.432Z,8.60
2022-10-18T23:58:52.810Z,7.10
